KAPN/APN METAR and TAF weather

Enter ICAO airport designator
Station Type Date Time Source
KAPN METAR 2020/09/19 02:54 UTC NOAA

KAPN 190254Z 26003KT 10SM CLR 03/02 A3039 RMK AO2 SLP297 T00280017 52007


Station Type Date Time Source
KAPN Decoded METAR 2020/09/19 02:54 UTC NOAA

ALPENA COUNTY REGIONAL AIRPORT, MI, United States (KAPN) 45-05N 083-34W 210M
Sep 18, 2020 - 10:54 PM EDT / 2020.09.19 0254 UTC
Wind: from the W (260 degrees) at 3 MPH (3 KT):0
Visibility: 10 mile(s):0
Sky conditions: clear
Temperature: 37.0 F (2.8 C)
Dew Point: 35.1 F (1.7 C)
Relative Humidity: 92%
Pressure (altimeter): 30.39 in. Hg (1029 hPa)
Pressure tendency: 0.02 inches (0.7 hPa) higher than three hours ago
ob: KAPN 190254Z 26003KT 10SM CLR 03/02 A3039 RMK AO2 SLP297 T00280017 52007
cycle: 3

Station Type Date Time Source
KAPN TAF 2020/09/18 18:22 UTC NOAA

TAF KAPN 181720Z 1818/1918 01009KT P6SM FEW250
FM190100 VRB03KT P6SM SKC

Example: see airport list